sensor_id;sensor_type;location;lat;lon;timestamp;P1;durP1;ratioP1;P2;durP2;ratioP2
56039;SDS011;43937;41.366;2.072;2022-10-16T00:02:00;8.25;;;4.15;;
56039;SDS011;43937;41.366;2.072;2022-10-16T00:04:25;5.10;;;3.72;;
56039;SDS011;43937;41.366;2.072;2022-10-16T00:06:51;5.60;;;2.97;;
56039;SDS011;43937;41.366;2.072;2022-10-16T00:09:16;3.50;;;2.28;;
56039;SDS011;43937;41.366;2.072;2022-10-16T00:11:42;6.25;;;2.50;;
56039;SDS011;43937;41.366;2.072;2022-10-16T00:14:08;3.22;;;2.70;;
56039;SDS011;43937;41.366;2.072;2022-10-16T00:16:36;3.92;;;2.40;;
56039;SDS011;43937;41.366;2.072;2022-10-16T00:19:02;6.22;;;2.85;;
56039;SDS011;43937;41.366;2.072;2022-10-16T00:21:29;3.42;;;2.13;;
56039;SDS011;43937;41.366;2.072;2022-10-16T00:24:00;4.50;;;2.38;;
56039;SDS011;43937;41.366;2.072;2022-10-16T00:26:29;2.80;;;2.17;;
56039;SDS011;43937;41.366;2.072;2022-10-16T00:28:56;5.22;;;2.28;;
56039;SDS011;43937;41.366;2.072;2022-10-16T00:31:22;4.57;;;1.92;;
56039;SDS011;43937;41.366;2.072;2022-10-16T00:33:48;2.65;;;1.67;;
56039;SDS011;43937;41.366;2.072;2022-10-16T00:36:16;3.55;;;2.00;;
56039;SDS011;43937;41.366;2.072;2022-10-16T00:38:43;5.78;;;2.17;;
56039;SDS011;43937;41.366;2.072;2022-10-16T00:41:13;2.08;;;1.75;;
56039;SDS011;43937;41.366;2.072;2022-10-16T00:43:43;4.65;;;2.45;;
56039;SDS011;43937;41.366;2.072;2022-10-16T00:46:26;6.43;;;2.65;;
56039;SDS011;43937;41.366;2.072;2022-10-16T00:48:57;3.05;;;2.22;;
56039;SDS011;43937;41.366;2.072;2022-10-16T00:51:38;2.42;;;1.73;;
56039;SDS011;43937;41.366;2.072;2022-10-16T00:54:11;4.95;;;2.33;;
56039;SDS011;43937;41.366;2.072;2022-10-16T00:56:47;4.22;;;2.38;;
56039;SDS011;43937;41.366;2.072;2022-10-16T00:59:15;6.15;;;2.08;;
56039;SDS011;43937;41.366;2.072;2022-10-16T01:01:49;3.75;;;1.88;;
56039;SDS011;43937;41.366;2.072;2022-10-16T01:04:15;4.20;;;2.50;;
56039;SDS011;43937;41.366;2.072;2022-10-16T01:06:50;5.20;;;2.88;;
56039;SDS011;43937;41.366;2.072;2022-10-16T01:09:37;4.25;;;2.38;;
56039;SDS011;43937;41.366;2.072;2022-10-16T01:17:34;5.57;;;2.45;;
56039;SDS011;43937;41.366;2.072;2022-10-16T01:20:10;4.00;;;2.30;;
56039;SDS011;43937;41.366;2.072;2022-10-16T01:25:55;2.60;;;2.40;;
56039;SDS011;43937;41.366;2.072;2022-10-16T01:28:51;4.45;;;2.75;;
56039;SDS011;43937;41.366;2.072;2022-10-16T01:31:26;4.22;;;2.33;;
56039;SDS011;43937;41.366;2.072;2022-10-16T01:33:59;6.05;;;2.47;;
56039;SDS011;43937;41.366;2.072;2022-10-16T01:36:33;4.28;;;2.40;;
56039;SDS011;43937;41.366;2.072;2022-10-16T01:39:04;4.82;;;2.20;;
56039;SDS011;43937;41.366;2.072;2022-10-16T01:41:38;3.83;;;2.28;;
56039;SDS011;43937;41.366;2.072;2022-10-16T01:44:10;5.55;;;2.72;;
56039;SDS011;43937;41.366;2.072;2022-10-16T01:46:42;8.25;;;3.47;;
56039;SDS011;43937;41.366;2.072;2022-10-16T01:49:10;4.03;;;2.50;;
56039;SDS011;43937;41.366;2.072;2022-10-16T01:51:37;3.47;;;2.45;;
56039;SDS011;43937;41.366;2.072;2022-10-16T01:54:04;10.18;;;3.88;;
56039;SDS011;43937;41.366;2.072;2022-10-16T01:56:33;4.70;;;3.10;;
56039;SDS011;43937;41.366;2.072;2022-10-16T01:59:16;5.25;;;3.60;;
56039;SDS011;43937;41.366;2.072;2022-10-16T02:01:49;6.90;;;4.38;;
56039;SDS011;43937;41.366;2.072;2022-10-16T02:05:32;5.95;;;3.85;;
56039;SDS011;43937;41.366;2.072;2022-10-16T02:08:03;12.00;;;4.35;;
56039;SDS011;43937;41.366;2.072;2022-10-16T02:10:28;10.68;;;4.40;;
56039;SDS011;43937;41.366;2.072;2022-10-16T02:13:18;9.85;;;4.70;;
56039;SDS011;43937;41.366;2.072;2022-10-16T02:16:10;6.32;;;4.47;;
56039;SDS011;43937;41.366;2.072;2022-10-16T02:20:02;6.90;;;4.57;;
56039;SDS011;43937;41.366;2.072;2022-10-16T02:22:36;6.90;;;4.70;;
56039;SDS011;43937;41.366;2.072;2022-10-16T02:25:10;5.75;;;4.22;;
56039;SDS011;43937;41.366;2.072;2022-10-16T02:30:40;8.50;;;5.28;;
56039;SDS011;43937;41.366;2.072;2022-10-16T02:33:10;6.63;;;5.13;;
56039;SDS011;43937;41.366;2.072;2022-10-16T02:35:40;6.03;;;4.72;;
56039;SDS011;43937;41.366;2.072;2022-10-16T02:38:08;5.30;;;4.80;;
56039;SDS011;43937;41.366;2.072;2022-10-16T02:40:34;6.95;;;5.22;;
56039;SDS011;43937;41.366;2.072;2022-10-16T02:43:02;10.48;;;5.47;;
56039;SDS011;43937;41.366;2.072;2022-10-16T02:45:29;7.95;;;5.35;;
56039;SDS011;43937;41.366;2.072;2022-10-16T02:47:54;7.28;;;4.88;;
56039;SDS011;43937;41.366;2.072;2022-10-16T02:50:20;7.43;;;5.95;;
56039;SDS011;43937;41.366;2.072;2022-10-16T02:52:45;6.53;;;5.25;;
56039;SDS011;43937;41.366;2.072;2022-10-16T02:55:11;7.75;;;5.40;;
56039;SDS011;43937;41.366;2.072;2022-10-16T02:57:36;8.23;;;4.90;;
56039;SDS011;43937;41.366;2.072;2022-10-16T03:00:03;8.38;;;5.10;;
56039;SDS011;43937;41.366;2.072;2022-10-16T03:02:29;4.68;;;3.08;;
56039;SDS011;43937;41.366;2.072;2022-10-16T03:04:55;6.45;;;3.50;;
56039;SDS011;43937;41.366;2.072;2022-10-16T03:07:20;3.97;;;3.50;;
56039;SDS011;43937;41.366;2.072;2022-10-16T03:09:46;4.70;;;2.88;;
56039;SDS011;43937;41.366;2.072;2022-10-16T03:12:11;5.70;;;3.00;;
56039;SDS011;43937;41.366;2.072;2022-10-16T03:14:37;2.10;;;1.90;;
56039;SDS011;43937;41.366;2.072;2022-10-16T03:17:02;4.85;;;2.60;;
56039;SDS011;43937;41.366;2.072;2022-10-16T03:19:28;8.40;;;1.98;;
56039;SDS011;43937;41.366;2.072;2022-10-16T03:21:53;3.10;;;2.20;;
56039;SDS011;43937;41.366;2.072;2022-10-16T03:24:54;3.80;;;2.85;;
56039;SDS011;43937;41.366;2.072;2022-10-16T03:27:19;7.93;;;3.70;;
56039;SDS011;43937;41.366;2.072;2022-10-16T03:29:45;4.00;;;3.40;;
56039;SDS011;43937;41.366;2.072;2022-10-16T03:32:10;10.32;;;4.30;;
56039;SDS011;43937;41.366;2.072;2022-10-16T03:34:36;6.95;;;4.35;;
56039;SDS011;43937;41.366;2.072;2022-10-16T03:37:01;6.05;;;4.43;;
56039;SDS011;43937;41.366;2.072;2022-10-16T03:39:26;6.38;;;4.30;;
56039;SDS011;43937;41.366;2.072;2022-10-16T03:41:52;6.57;;;4.82;;
56039;SDS011;43937;41.366;2.072;2022-10-16T03:44:17;5.78;;;4.55;;
56039;SDS011;43937;41.366;2.072;2022-10-16T03:46:43;16.27;;;5.30;;
56039;SDS011;43937;41.366;2.072;2022-10-16T03:49:08;12.00;;;4.57;;
56039;SDS011;43937;41.366;2.072;2022-10-16T03:51:33;5.72;;;4.65;;
56039;SDS011;43937;41.366;2.072;2022-10-16T03:53:59;5.15;;;4.10;;
56039;SDS011;43937;41.366;2.072;2022-10-16T03:56:24;5.45;;;3.25;;
56039;SDS011;43937;41.366;2.072;2022-10-16T03:58:50;4.75;;;3.50;;
56039;SDS011;43937;41.366;2.072;2022-10-16T04:01:15;3.20;;;2.28;;
56039;SDS011;43937;41.366;2.072;2022-10-16T04:03:41;4.93;;;2.30;;
56039;SDS011;43937;41.366;2.072;2022-10-16T04:06:06;4.30;;;2.42;;
56039;SDS011;43937;41.366;2.072;2022-10-16T04:08:32;4.90;;;3.28;;
56039;SDS011;43937;41.366;2.072;2022-10-16T04:11:00;5.63;;;3.30;;
56039;SDS011;43937;41.366;2.072;2022-10-16T04:13:26;7.50;;;4.30;;
56039;SDS011;43937;41.366;2.072;2022-10-16T04:15:51;6.68;;;5.55;;
56039;SDS011;43937;41.366;2.072;2022-10-16T04:18:16;9.80;;;5.18;;
56039;SDS011;43937;41.366;2.072;2022-10-16T04:20:42;7.18;;;4.88;;
56039;SDS011;43937;41.366;2.072;2022-10-16T04:23:07;8.27;;;5.07;;
56039;SDS011;43937;41.366;2.072;2022-10-16T04:25:33;6.03;;;4.95;;
56039;SDS011;43937;41.366;2.072;2022-10-16T04:27:58;7.00;;;5.72;;
56039;SDS011;43937;41.366;2.072;2022-10-16T04:30:24;13.15;;;7.28;;
56039;SDS011;43937;41.366;2.072;2022-10-16T04:32:50;20.23;;;6.25;;
56039;SDS011;43937;41.366;2.072;2022-10-16T04:35:17;8.15;;;6.22;;
56039;SDS011;43937;41.366;2.072;2022-10-16T04:37:43;8.15;;;6.43;;
56039;SDS011;43937;41.366;2.072;2022-10-16T04:40:08;6.70;;;5.20;;
56039;SDS011;43937;41.366;2.072;2022-10-16T04:42:34;12.73;;;6.75;;
56039;SDS011;43937;41.366;2.072;2022-10-16T04:44:59;12.43;;;6.13;;
56039;SDS011;43937;41.366;2.072;2022-10-16T04:47:25;11.15;;;5.90;;
56039;SDS011;43937;41.366;2.072;2022-10-16T04:49:50;8.38;;;5.93;;
56039;SDS011;43937;41.366;2.072;2022-10-16T04:52:16;8.40;;;5.28;;
56039;SDS011;43937;41.366;2.072;2022-10-16T04:54:42;6.55;;;5.13;;
56039;SDS011;43937;41.366;2.072;2022-10-16T04:57:09;15.30;;;6.38;;
56039;SDS011;43937;41.366;2.072;2022-10-16T04:59:35;9.60;;;5.68;;
56039;SDS011;43937;41.366;2.072;2022-10-16T05:02:00;10.43;;;6.57;;
56039;SDS011;43937;41.366;2.072;2022-10-16T05:04:26;11.55;;;7.75;;
56039;SDS011;43937;41.366;2.072;2022-10-16T05:06:51;10.00;;;5.78;;
56039;SDS011;43937;41.366;2.072;2022-10-16T05:09:17;29.88;;;7.20;;
56039;SDS011;43937;41.366;2.072;2022-10-16T05:11:54;15.30;;;6.20;;
56039;SDS011;43937;41.366;2.072;2022-10-16T05:14:19;7.80;;;6.53;;
56039;SDS011;43937;41.366;2.072;2022-10-16T05:16:45;7.57;;;6.22;;
56039;SDS011;43937;41.366;2.072;2022-10-16T05:20:19;10.77;;;6.85;;
56039;SDS011;43937;41.366;2.072;2022-10-16T05:22:44;12.75;;;7.40;;
56039;SDS011;43937;41.366;2.072;2022-10-16T05:25:10;12.45;;;7.13;;
56039;SDS011;43937;41.366;2.072;2022-10-16T05:27:36;9.98;;;6.22;;
56039;SDS011;43937;41.366;2.072;2022-10-16T05:30:01;14.10;;;7.32;;
56039;SDS011;43937;41.366;2.072;2022-10-16T05:32:27;13.48;;;6.68;;
56039;SDS011;43937;41.366;2.072;2022-10-16T05:34:52;9.00;;;6.65;;
56039;SDS011;43937;41.366;2.072;2022-10-16T05:37:17;13.80;;;6.03;;
56039;SDS011;43937;41.366;2.072;2022-10-16T05:39:43;10.02;;;5.75;;
56039;SDS011;43937;41.366;2.072;2022-10-16T05:42:08;11.93;;;6.32;;
56039;SDS011;43937;41.366;2.072;2022-10-16T05:45:18;5.78;;;5.15;;
56039;SDS011;43937;41.366;2.072;2022-10-16T05:48:28;9.05;;;5.88;;
56039;SDS011;43937;41.366;2.072;2022-10-16T05:51:01;14.50;;;6.05;;
56039;SDS011;43937;41.366;2.072;2022-10-16T05:53:29;6.88;;;5.22;;
56039;SDS011;43937;41.366;2.072;2022-10-16T05:55:56;8.63;;;6.22;;
56039;SDS011;43937;41.366;2.072;2022-10-16T05:58:22;12.30;;;5.78;;
56039;SDS011;43937;41.366;2.072;2022-10-16T06:00:57;10.32;;;6.53;;
56039;SDS011;43937;41.366;2.072;2022-10-16T06:03:24;18.45;;;5.13;;
56039;SDS011;43937;41.366;2.072;2022-10-16T06:05:50;10.15;;;5.78;;
56039;SDS011;43937;41.366;2.072;2022-10-16T06:08:43;11.32;;;4.68;;
56039;SDS011;43937;41.366;2.072;2022-10-16T06:11:11;7.97;;;5.15;;
56039;SDS011;43937;41.366;2.072;2022-10-16T06:14:07;11.68;;;5.95;;
56039;SDS011;43937;41.366;2.072;2022-10-16T06:16:34;6.85;;;4.68;;
56039;SDS011;43937;41.366;2.072;2022-10-16T06:19:00;7.20;;;4.82;;
56039;SDS011;43937;41.366;2.072;2022-10-16T06:21:29;9.13;;;5.00;;
56039;SDS011;43937;41.366;2.072;2022-10-16T06:23:55;8.80;;;4.50;;
56039;SDS011;43937;41.366;2.072;2022-10-16T06:26:22;6.28;;;4.30;;
56039;SDS011;43937;41.366;2.072;2022-10-16T06:28:49;10.77;;;4.47;;
56039;SDS011;43937;41.366;2.072;2022-10-16T06:31:15;6.60;;;4.70;;
56039;SDS011;43937;41.366;2.072;2022-10-16T06:33:42;6.80;;;4.43;;
56039;SDS011;43937;41.366;2.072;2022-10-16T06:36:14;6.78;;;4.05;;
56039;SDS011;43937;41.366;2.072;2022-10-16T06:38:41;13.75;;;4.57;;
56039;SDS011;43937;41.366;2.072;2022-10-16T06:41:09;6.00;;;4.38;;
56039;SDS011;43937;41.366;2.072;2022-10-16T06:43:38;10.52;;;4.57;;
56039;SDS011;43937;41.366;2.072;2022-10-16T06:46:05;4.50;;;3.80;;
56039;SDS011;43937;41.366;2.072;2022-10-16T06:48:32;10.77;;;5.28;;
56039;SDS011;43937;41.366;2.072;2022-10-16T06:52:44;8.10;;;5.45;;
56039;SDS011;43937;41.366;2.072;2022-10-16T06:55:09;6.60;;;4.97;;
56039;SDS011;43937;41.366;2.072;2022-10-16T06:57:35;18.67;;;6.00;;
56039;SDS011;43937;41.366;2.072;2022-10-16T07:02:00;7.25;;;4.53;;
56039;SDS011;43937;41.366;2.072;2022-10-16T07:04:26;8.75;;;6.13;;
56039;SDS011;43937;41.366;2.072;2022-10-16T07:07:31;18.83;;;8.68;;
56039;SDS011;43937;41.366;2.072;2022-10-16T07:09:56;13.82;;;7.15;;
56039;SDS011;43937;41.366;2.072;2022-10-16T07:12:22;13.85;;;8.18;;
56039;SDS011;43937;41.366;2.072;2022-10-16T07:14:47;10.30;;;6.80;;
56039;SDS011;43937;41.366;2.072;2022-10-16T07:17:13;10.77;;;6.10;;
56039;SDS011;43937;41.366;2.072;2022-10-16T07:19:38;8.52;;;4.75;;
56039;SDS011;43937;41.366;2.072;2022-10-16T07:22:03;8.55;;;4.55;;
56039;SDS011;43937;41.366;2.072;2022-10-16T07:24:29;5.65;;;3.88;;
56039;SDS011;43937;41.366;2.072;2022-10-16T07:29:00;12.80;;;6.63;;
56039;SDS011;43937;41.366;2.072;2022-10-16T07:31:26;14.65;;;7.70;;
56039;SDS011;43937;41.366;2.072;2022-10-16T07:33:51;13.13;;;7.10;;
56039;SDS011;43937;41.366;2.072;2022-10-16T07:36:18;13.70;;;8.05;;
56039;SDS011;43937;41.366;2.072;2022-10-16T07:38:44;16.15;;;9.02;;
56039;SDS011;43937;41.366;2.072;2022-10-16T07:41:11;23.23;;;9.98;;
56039;SDS011;43937;41.366;2.072;2022-10-16T07:45:23;14.53;;;9.17;;
56039;SDS011;43937;41.366;2.072;2022-10-16T07:47:48;11.68;;;8.57;;
56039;SDS011;43937;41.366;2.072;2022-10-16T07:50:13;17.17;;;7.95;;
56039;SDS011;43937;41.366;2.072;2022-10-16T07:54:35;11.80;;;5.95;;
56039;SDS011;43937;41.366;2.072;2022-10-16T07:57:01;18.80;;;7.25;;
56039;SDS011;43937;41.366;2.072;2022-10-16T08:00:24;8.68;;;5.25;;
56039;SDS011;43937;41.366;2.072;2022-10-16T08:02:50;9.55;;;5.43;;
56039;SDS011;43937;41.366;2.072;2022-10-16T08:05:15;11.20;;;6.63;;
56039;SDS011;43937;41.366;2.072;2022-10-16T08:08:26;5.57;;;3.97;;
56039;SDS011;43937;41.366;2.072;2022-10-16T08:10:52;10.48;;;4.65;;
56039;SDS011;43937;41.366;2.072;2022-10-16T08:13:17;4.63;;;3.60;;
56039;SDS011;43937;41.366;2.072;2022-10-16T08:15:43;5.32;;;4.38;;
56039;SDS011;43937;41.366;2.072;2022-10-16T08:19:24;6.05;;;4.25;;
56039;SDS011;43937;41.366;2.072;2022-10-16T08:21:49;10.27;;;5.18;;
56039;SDS011;43937;41.366;2.072;2022-10-16T08:25:28;6.10;;;4.20;;
56039;SDS011;43937;41.366;2.072;2022-10-16T08:27:54;5.30;;;3.60;;
56039;SDS011;43937;41.366;2.072;2022-10-16T08:30:20;29.48;;;4.97;;
56039;SDS011;43937;41.366;2.072;2022-10-16T08:32:47;6.13;;;4.40;;
56039;SDS011;43937;41.366;2.072;2022-10-16T08:35:13;10.85;;;5.72;;
56039;SDS011;43937;41.366;2.072;2022-10-16T08:37:39;10.02;;;5.93;;
56039;SDS011;43937;41.366;2.072;2022-10-16T08:40:06;8.80;;;5.70;;
56039;SDS011;43937;41.366;2.072;2022-10-16T08:42:51;12.48;;;6.80;;
56039;SDS011;43937;41.366;2.072;2022-10-16T08:48:05;12.82;;;8.38;;
56039;SDS011;43937;41.366;2.072;2022-10-16T08:50:41;13.60;;;8.10;;
56039;SDS011;43937;41.366;2.072;2022-10-16T08:53:09;11.07;;;7.93;;
56039;SDS011;43937;41.366;2.072;2022-10-16T08:55:41;15.88;;;8.18;;
56039;SDS011;43937;41.366;2.072;2022-10-16T08:58:14;16.88;;;7.72;;
56039;SDS011;43937;41.366;2.072;2022-10-16T09:00:42;12.43;;;7.70;;
56039;SDS011;43937;41.366;2.072;2022-10-16T09:03:21;11.50;;;7.85;;
56039;SDS011;43937;41.366;2.072;2022-10-16T09:19:41;18.85;;;13.05;;
56039;SDS011;43937;41.366;2.072;2022-10-16T09:23:29;22.73;;;12.50;;
56039;SDS011;43937;41.366;2.072;2022-10-16T09:25:59;18.33;;;11.23;;
56039;SDS011;43937;41.366;2.072;2022-10-16T09:28:25;14.77;;;9.48;;
56039;SDS011;43937;41.366;2.072;2022-10-16T09:30:50;16.92;;;10.95;;
56039;SDS011;43937;41.366;2.072;2022-10-16T09:33:20;13.60;;;8.70;;
56039;SDS011;43937;41.366;2.072;2022-10-16T09:35:56;15.23;;;8.63;;
56039;SDS011;43937;41.366;2.072;2022-10-16T09:41:19;17.05;;;9.85;;
56039;SDS011;43937;41.366;2.072;2022-10-16T09:44:06;20.80;;;10.85;;
56039;SDS011;43937;41.366;2.072;2022-10-16T09:48:48;12.13;;;9.98;;
56039;SDS011;43937;41.366;2.072;2022-10-16T09:52:36;18.70;;;14.68;;
56039;SDS011;43937;41.366;2.072;2022-10-16T09:55:09;18.67;;;9.57;;
56039;SDS011;43937;41.366;2.072;2022-10-16T09:57:51;22.35;;;10.55;;
56039;SDS011;43937;41.366;2.072;2022-10-16T10:00:18;16.08;;;8.82;;
56039;SDS011;43937;41.366;2.072;2022-10-16T10:02:44;14.85;;;7.97;;
56039;SDS011;43937;41.366;2.072;2022-10-16T10:09:23;14.02;;;8.05;;
56039;SDS011;43937;41.366;2.072;2022-10-16T10:17:17;10.93;;;8.60;;
56039;SDS011;43937;41.366;2.072;2022-10-16T10:19:49;8.35;;;6.63;;
56039;SDS011;43937;41.366;2.072;2022-10-16T10:24:54;7.50;;;5.35;;
56039;SDS011;43937;41.366;2.072;2022-10-16T10:32:43;5.72;;;2.58;;
56039;SDS011;43937;41.366;2.072;2022-10-16T10:35:30;4.25;;;2.53;;
56039;SDS011;43937;41.366;2.072;2022-10-16T10:41:01;2.88;;;1.75;;
56039;SDS011;43937;41.366;2.072;2022-10-16T10:46:32;5.55;;;2.70;;
56039;SDS011;43937;41.366;2.072;2022-10-16T10:49:23;2.97;;;1.65;;
56039;SDS011;43937;41.366;2.072;2022-10-16T10:52:32;3.07;;;1.53;;
56039;SDS011;43937;41.366;2.072;2022-10-16T11:00:21;4.07;;;1.48;;
56039;SDS011;43937;41.366;2.072;2022-10-16T11:07:28;2.08;;;1.65;;
56039;SDS011;43937;41.366;2.072;2022-10-16T11:10:11;4.45;;;1.75;;
56039;SDS011;43937;41.366;2.072;2022-10-16T11:12:42;3.10;;;1.47;;
56039;SDS011;43937;41.366;2.072;2022-10-16T11:15:14;4.35;;;2.25;;
56039;SDS011;43937;41.366;2.072;2022-10-16T11:22:51;3.45;;;1.83;;
56039;SDS011;43937;41.366;2.072;2022-10-16T11:25:31;2.90;;;1.88;;
56039;SDS011;43937;41.366;2.072;2022-10-16T11:32:12;7.97;;;2.55;;
56039;SDS011;43937;41.366;2.072;2022-10-16T11:34:49;3.40;;;1.65;;
56039;SDS011;43937;41.366;2.072;2022-10-16T11:37:23;3.03;;;1.90;;
56039;SDS011;43937;41.366;2.072;2022-10-16T11:42:27;8.35;;;2.42;;
56039;SDS011;43937;41.366;2.072;2022-10-16T11:45:07;2.78;;;1.63;;
56039;SDS011;43937;41.366;2.072;2022-10-16T11:47:48;3.92;;;1.60;;
56039;SDS011;43937;41.366;2.072;2022-10-16T11:50:23;2.53;;;1.08;;
56039;SDS011;43937;41.366;2.072;2022-10-16T11:55:44;1.92;;;1.30;;
56039;SDS011;43937;41.366;2.072;2022-10-16T12:06:33;3.85;;;1.90;;
56039;SDS011;43937;41.366;2.072;2022-10-16T12:09:14;8.18;;;2.20;;
56039;SDS011;43937;41.366;2.072;2022-10-16T12:11:45;2.97;;;1.67;;
56039;SDS011;43937;41.366;2.072;2022-10-16T12:16:58;3.40;;;1.60;;
56039;SDS011;43937;41.366;2.072;2022-10-16T12:22:42;4.00;;;1.35;;
56039;SDS011;43937;41.366;2.072;2022-10-16T12:25:28;4.32;;;2.10;;
56039;SDS011;43937;41.366;2.072;2022-10-16T12:28:06;6.95;;;1.42;;
56039;SDS011;43937;41.366;2.072;2022-10-16T12:30:59;3.08;;;1.30;;
56039;SDS011;43937;41.366;2.072;2022-10-16T12:33:30;6.25;;;1.75;;
56039;SDS011;43937;41.366;2.072;2022-10-16T12:35:59;1.48;;;1.00;;
56039;SDS011;43937;41.366;2.072;2022-10-16T12:38:28;10.77;;;2.63;;
56039;SDS011;43937;41.366;2.072;2022-10-16T12:40:56;2.60;;;1.70;;
56039;SDS011;43937;41.366;2.072;2022-10-16T12:43:26;2.65;;;1.75;;
56039;SDS011;43937;41.366;2.072;2022-10-16T12:48:34;4.35;;;1.45;;
56039;SDS011;43937;41.366;2.072;2022-10-16T12:51:23;2.45;;;1.45;;
56039;SDS011;43937;41.366;2.072;2022-10-16T12:54:37;2.10;;;1.10;;
56039;SDS011;43937;41.366;2.072;2022-10-16T13:05:03;6.22;;;1.80;;
56039;SDS011;43937;41.366;2.072;2022-10-16T13:10:34;2.35;;;1.08;;
56039;SDS011;43937;41.366;2.072;2022-10-16T13:28:07;6.35;;;1.17;;
56039;SDS011;43937;41.366;2.072;2022-10-16T13:30:39;2.00;;;0.80;;
56039;SDS011;43937;41.366;2.072;2022-10-16T13:33:14;3.25;;;1.73;;
56039;SDS011;43937;41.366;2.072;2022-10-16T13:35:52;10.60;;;2.20;;
56039;SDS011;43937;41.366;2.072;2022-10-16T13:40:23;1.50;;;1.00;;
56039;SDS011;43937;41.366;2.072;2022-10-16T13:42:50;5.13;;;1.50;;
56039;SDS011;43937;41.366;2.072;2022-10-16T13:45:20;5.80;;;2.13;;
56039;SDS011;43937;41.366;2.072;2022-10-16T13:47:47;6.65;;;1.98;;
56039;SDS011;43937;41.366;2.072;2022-10-16T13:50:17;4.25;;;1.52;;
56039;SDS011;43937;41.366;2.072;2022-10-16T13:52:43;2.92;;;1.42;;
56039;SDS011;43937;41.366;2.072;2022-10-16T13:55:10;2.78;;;1.30;;
56039;SDS011;43937;41.366;2.072;2022-10-16T13:57:37;6.45;;;1.85;;
56039;SDS011;43937;41.366;2.072;2022-10-16T14:00:02;1.77;;;0.90;;
56039;SDS011;43937;41.366;2.072;2022-10-16T14:02:35;5.40;;;1.88;;
56039;SDS011;43937;41.366;2.072;2022-10-16T14:05:04;3.80;;;1.52;;
56039;SDS011;43937;41.366;2.072;2022-10-16T14:07:35;2.40;;;1.10;;
56039;SDS011;43937;41.366;2.072;2022-10-16T14:10:47;3.50;;;1.27;;
56039;SDS011;43937;41.366;2.072;2022-10-16T14:13:01;1.52;;;0.82;;
56039;SDS011;43937;41.366;2.072;2022-10-16T14:15:30;6.40;;;1.48;;
56039;SDS011;43937;41.366;2.072;2022-10-16T14:17:57;3.08;;;0.93;;
56039;SDS011;43937;41.366;2.072;2022-10-16T14:20:24;2.25;;;0.90;;
56039;SDS011;43937;41.366;2.072;2022-10-16T14:23:17;4.75;;;1.08;;
56039;SDS011;43937;41.366;2.072;2022-10-16T14:25:46;2.80;;;0.80;;
56039;SDS011;43937;41.366;2.072;2022-10-16T14:28:21;2.65;;;1.30;;
56039;SDS011;43937;41.366;2.072;2022-10-16T14:30:54;3.53;;;0.93;;
56039;SDS011;43937;41.366;2.072;2022-10-16T14:33:30;2.03;;;0.80;;
56039;SDS011;43937;41.366;2.072;2022-10-16T14:36:05;2.47;;;1.23;;
56039;SDS011;43937;41.366;2.072;2022-10-16T14:38:36;1.73;;;0.90;;
56039;SDS011;43937;41.366;2.072;2022-10-16T14:41:03;4.13;;;1.17;;
56039;SDS011;43937;41.366;2.072;2022-10-16T14:43:35;2.67;;;0.90;;
56039;SDS011;43937;41.366;2.072;2022-10-16T14:46:03;1.08;;;0.68;;
56039;SDS011;43937;41.366;2.072;2022-10-16T14:48:34;1.00;;;0.70;;
56039;SDS011;43937;41.366;2.072;2022-10-16T14:50:59;1.58;;;0.85;;
56039;SDS011;43937;41.366;2.072;2022-10-16T14:53:25;3.20;;;0.95;;
56039;SDS011;43937;41.366;2.072;2022-10-16T14:55:50;5.88;;;1.50;;
56039;SDS011;43937;41.366;2.072;2022-10-16T14:58:22;0.90;;;0.60;;
56039;SDS011;43937;41.366;2.072;2022-10-16T15:00:49;5.00;;;0.85;;
56039;SDS011;43937;41.366;2.072;2022-10-16T15:03:15;1.75;;;0.80;;
56039;SDS011;43937;41.366;2.072;2022-10-16T15:05:41;1.92;;;0.77;;
56039;SDS011;43937;41.366;2.072;2022-10-16T15:08:06;1.65;;;0.80;;
56039;SDS011;43937;41.366;2.072;2022-10-16T15:10:33;1.58;;;0.80;;
56039;SDS011;43937;41.366;2.072;2022-10-16T15:15:00;5.03;;;1.30;;
56039;SDS011;43937;41.366;2.072;2022-10-16T15:17:25;1.92;;;0.88;;
56039;SDS011;43937;41.366;2.072;2022-10-16T15:19:50;4.40;;;1.00;;
56039;SDS011;43937;41.366;2.072;2022-10-16T15:22:16;1.30;;;0.70;;
56039;SDS011;43937;41.366;2.072;2022-10-16T15:25:38;4.10;;;0.98;;
56039;SDS011;43937;41.366;2.072;2022-10-16T15:28:07;0.70;;;0.65;;
56039;SDS011;43937;41.366;2.072;2022-10-16T15:30:34;3.10;;;1.17;;
56039;SDS011;43937;41.366;2.072;2022-10-16T15:33:01;4.32;;;1.30;;
56039;SDS011;43937;41.366;2.072;2022-10-16T15:35:27;6.07;;;1.30;;
56039;SDS011;43937;41.366;2.072;2022-10-16T15:37:53;2.97;;;0.93;;
56039;SDS011;43937;41.366;2.072;2022-10-16T15:40:19;1.83;;;1.00;;
56039;SDS011;43937;41.366;2.072;2022-10-16T15:42:45;2.03;;;1.02;;
56039;SDS011;43937;41.366;2.072;2022-10-16T15:45:11;1.80;;;1.00;;
56039;SDS011;43937;41.366;2.072;2022-10-16T15:47:37;4.53;;;1.40;;
56039;SDS011;43937;41.366;2.072;2022-10-16T15:50:05;3.15;;;1.48;;
56039;SDS011;43937;41.366;2.072;2022-10-16T15:52:30;2.88;;;1.17;;
56039;SDS011;43937;41.366;2.072;2022-10-16T15:54:57;2.53;;;1.35;;
56039;SDS011;43937;41.366;2.072;2022-10-16T15:57:22;2.25;;;1.52;;
56039;SDS011;43937;41.366;2.072;2022-10-16T15:59:49;2.28;;;0.88;;
56039;SDS011;43937;41.366;2.072;2022-10-16T16:02:14;3.78;;;0.90;;
56039;SDS011;43937;41.366;2.072;2022-10-16T16:04:40;2.30;;;1.27;;
56039;SDS011;43937;41.366;2.072;2022-10-16T16:07:05;16.83;;;9.63;;
56039;SDS011;43937;41.366;2.072;2022-10-16T16:09:32;9.43;;;6.07;;
56039;SDS011;43937;41.366;2.072;2022-10-16T16:11:58;7.60;;;5.00;;
56039;SDS011;43937;41.366;2.072;2022-10-16T16:14:26;5.68;;;1.83;;
56039;SDS011;43937;41.366;2.072;2022-10-16T16:16:55;5.15;;;2.70;;
56039;SDS011;43937;41.366;2.072;2022-10-16T16:19:21;2.30;;;1.67;;
56039;SDS011;43937;41.366;2.072;2022-10-16T16:21:47;3.65;;;2.33;;
56039;SDS011;43937;41.366;2.072;2022-10-16T16:24:13;6.30;;;2.03;;
56039;SDS011;43937;41.366;2.072;2022-10-16T16:26:38;5.78;;;1.95;;
56039;SDS011;43937;41.366;2.072;2022-10-16T16:29:08;4.20;;;1.85;;
56039;SDS011;43937;41.366;2.072;2022-10-16T16:31:45;3.92;;;2.20;;
56039;SDS011;43937;41.366;2.072;2022-10-16T16:34:12;2.70;;;2.22;;
56039;SDS011;43937;41.366;2.072;2022-10-16T16:36:38;3.30;;;2.22;;
56039;SDS011;43937;41.366;2.072;2022-10-16T16:39:04;6.85;;;1.95;;
56039;SDS011;43937;41.366;2.072;2022-10-16T16:41:30;5.75;;;1.45;;
56039;SDS011;43937;41.366;2.072;2022-10-16T16:44:01;1.58;;;1.13;;
56039;SDS011;43937;41.366;2.072;2022-10-16T16:46:28;7.80;;;3.03;;
56039;SDS011;43937;41.366;2.072;2022-10-16T16:48:54;6.65;;;1.80;;
56039;SDS011;43937;41.366;2.072;2022-10-16T16:51:20;3.85;;;1.90;;
56039;SDS011;43937;41.366;2.072;2022-10-16T16:53:47;2.72;;;1.58;;
56039;SDS011;43937;41.366;2.072;2022-10-16T16:56:15;4.28;;;2.33;;
56039;SDS011;43937;41.366;2.072;2022-10-16T16:58:41;6.85;;;1.88;;
56039;SDS011;43937;41.366;2.072;2022-10-16T17:01:08;15.02;;;2.17;;
56039;SDS011;43937;41.366;2.072;2022-10-16T17:03:34;6.78;;;3.28;;
56039;SDS011;43937;41.366;2.072;2022-10-16T17:06:02;4.47;;;2.75;;
56039;SDS011;43937;41.366;2.072;2022-10-16T17:08:33;7.15;;;4.68;;
56039;SDS011;43937;41.366;2.072;2022-10-16T17:10:59;14.65;;;4.82;;
56039;SDS011;43937;41.366;2.072;2022-10-16T17:13:25;10.95;;;2.13;;
56039;SDS011;43937;41.366;2.072;2022-10-16T17:15:56;4.53;;;2.45;;
56039;SDS011;43937;41.366;2.072;2022-10-16T17:18:22;3.30;;;2.38;;
56039;SDS011;43937;41.366;2.072;2022-10-16T17:20:49;10.60;;;4.05;;
56039;SDS011;43937;41.366;2.072;2022-10-16T17:23:16;5.72;;;2.72;;
56039;SDS011;43937;41.366;2.072;2022-10-16T17:25:42;7.75;;;3.17;;
56039;SDS011;43937;41.366;2.072;2022-10-16T17:28:08;6.90;;;2.97;;